Shawville, Canada
Current Conditions -  °F | °C
As of 7:00 PM on Saturday 25 Oct 2014 (Local Time) from CYOW Reporting Station
Broken Clouds Broken Clouds  
Wind Chill: 50°   Ceiling: 22000
Heat Index: 50°   Visibility: 12mi
Dew Point: 48°   Wind: 9mph
Humidity: 94%   Direction: 240°WSW
Pressure: 29.46"   Gusts: NA
Location:  45.6°N, 76.48°W
Report Text: CYOW 252300Z 24008KT 12SM FEW060 BKN220 10/09 A2946 RMK SC2CI3 SLP979
Loading
Personal Weather Stations






























Interactive Weather Map
Tropical Storm Tracking
New forecast layout! Learn more

10-Day Weather Forecast

Advertisements
Track Severe Weather on mobile